Uxbridge, Canada
Current Conditions -  °F | °C
As of 1:00 AM on Tuesday 21 Oct 2014 (Local Time) from CYKZ Reporting Station
Haze Haze  
Wind Chill: 50°   Ceiling: 2500
Heat Index: 50°   Visibility: 5mi
Dew Point: 50°   Wind: 0mph
Humidity: 100%   Direction: NA
Pressure: 29.79"   Gusts: NA
Location:  44.1°N, 79.12°W
Report Text: CYKZ 210500Z 00000KT 5SM BR FEW018 OVC025 10/10 A2979 RMKSC2SC6 SLP091
Loading
Personal Weather Stations






























Interactive Weather Map
Tropical Storm Tracking
New forecast layout! Learn more

10-Day Weather Forecast

Advertisements
Track Severe Weather on mobile